Airfield :
LOGIN :

Register | Disclaimer

   EN    FR    IT 

 










Legend :    VFR   Marginal VFR   IFR   Intensive IFR   Very Intensive IFR
Visi :
Ceiling :
>= 8 km
>= 3000ft
5 to 8 km
1000 to 3000 ft
1500m to 5 km
500 to 1000 ft
800 to 1500m
200 to 500 ft
< 800m
< 200 ft
Symbols :   Thunderstorms  Fog  Heavy snow  Heavy precipitations  Wind > 20 kt
SIGMETs :     Misc.  Thunderstorms  Icing  Turbulence  Mountain Waves  Volcanic Ashes







- Airport Elevation : 41 ft


LIRE - Pratica di Mare Air Base Pomezia

CURRENT METAR :
  • 182255Z 34002KT 8000 -RA SCT020 SCT030 24/23 Q1019 RETS RMK BKN VIS MIN 8000 WIND THR13 33002KT WIND THR31 /////KT BLU

EXPIRED METARs :
  • 182155Z 15002KT 8000 -TSRA SCT020CB BKN070 24/23 Q1019 RMK BKN VIS MIN 8000 WIND THR13 14003KT WIND THR31/////KT BLU
  • 182055Z 11003KT 9999 SCT020CB BKN070 24/23 Q1019 RMK BKN VIS MIN 9999 WIND THR13 09002KT WIND THR31 /////KT BLU

TAF TAF LIRE
Valid from the 19 at 00:00 until the 19 at 09:00 UTC


182300Z 1900/1909 11007KT 9999 SCT020 SCT050
TEMPO 1900/1906 RA BKN030
No reported NOTAMs for that airfield.
1 SIGMET reported for the Roma FIR (LIRR) :
 
Frequent thunderstorms
LIRR SIGMET 6 VALID 182300/190200 LIIB
LIRR ROMA FIR FRQ TS OBS WI N3832 E00900 - N4112 E00900 - N4112 E01231 - N3832 E01231 - N3832 E00900 TOP ABV FL360 STNR NC=



MET'MAP, your aeronautical weather chart ! - Copyright ORBIFLY December 2007 - Disclaimer

ORBIFLY MET'MAP TEAM :

Programming & Development : Alexandra Zaïnal
Concept & Development : Baudouin d'Aumeries
Co-Development & Prog : Marc-Olivier Méhu
Technical & hardware support : Manuel Goepfert

Contact : metmap@orbifly.com




SOURCES & CREDITS :

   NOAA